Time;durP1;ratioP1;P1;durP2;ratioP2;P2;SDS_P1;SDS_P2;PMS_P1;PMS_P2;Temp;Humidity;BMP_temperature;BMP_pressure;BME280_temperature;BME280_humidity;BME280_pressure;Samples;Min_cycle;Max_cycle;Signal;HPM_P1;HPM_P2
2024/03/27 00:00:55;;;;;;;10.80;9.93;;;13.80;14.50;;;;;;4923498;29;20504;-82
2024/03/27 00:03:21;;;;;;;11.20;9.97;;;13.60;15.40;;;;;;4924237;29;20200;-82
2024/03/27 00:05:46;;;;;;;10.43;9.73;;;13.50;16.00;;;;;;4933409;29;20268;-82
2024/03/27 00:08:12;;;;;;;9.67;9.07;;;13.70;15.50;;;;;;4925874;29;20649;-82
2024/03/27 00:10:38;;;;;;;10.43;9.63;;;13.70;15.20;;;;;;4911221;29;20212;-82
2024/03/27 00:13:03;;;;;;;10.20;9.30;;;13.80;15.10;;;;;;4912872;29;20817;-82
2024/03/27 00:15:29;;;;;;;12.07;9.33;;;13.80;15.10;;;;;;4931415;29;20223;-82
2024/03/27 00:17:54;;;;;;;10.70;10.00;;;13.90;14.90;;;;;;4932590;29;20218;-82
2024/03/27 00:20:21;;;;;;;10.23;9.40;;;13.90;14.70;;;;;;4935530;29;20244;-81
2024/03/27 00:22:47;;;;;;;10.27;9.57;;;13.90;14.70;;;;;;4928062;29;20181;-81
2024/03/27 00:25:13;;;;;;;9.47;8.77;;;13.80;14.30;;;;;;4906117;29;20460;-82
2024/03/27 00:27:39;;;;;;;9.53;8.60;;;13.60;14.40;;;;;;4904608;29;20445;-82
2024/03/27 00:30:05;;;;;;;9.50;8.80;;;13.60;14.70;;;;;;4905115;29;20190;-81
2024/03/27 00:32:30;;;;;;;9.37;8.70;;;13.70;14.90;;;;;;4914701;29;20444;-81
2024/03/27 00:34:57;;;;;;;9.10;8.50;;;13.80;14.60;;;;;;4923555;29;20464;-82
2024/03/27 00:37:23;;;;;;;9.70;8.80;;;13.80;14.70;;;;;;4940490;29;20210;-82
2024/03/27 00:39:48;;;;;;;9.90;9.30;;;13.90;14.50;;;;;;4939510;29;20440;-81
2024/03/27 00:42:13;;;;;;;10.73;8.93;;;13.90;14.20;;;;;;4924949;29;20180;-83
2024/03/27 00:44:39;;;;;;;11.00;9.20;;;14.00;13.80;;;;;;4940707;29;20199;-82
2024/03/27 00:47:06;;;;;;;8.87;8.37;;;14.00;13.70;;;;;;4940745;29;20211;-82
2024/03/27 00:49:31;;;;;;;9.50;8.90;;;14.00;13.90;;;;;;4923067;29;20546;-82
2024/03/27 00:51:57;;;;;;;9.37;8.47;;;14.00;14.00;;;;;;4918846;29;20185;-82
2024/03/27 00:54:23;;;;;;;10.47;9.77;;;14.10;14.10;;;;;;4921151;29;20215;-82
2024/03/27 00:56:48;;;;;;;9.50;8.90;;;14.00;14.60;;;;;;4924124;29;20208;-81
2024/03/27 00:59:14;;;;;;;8.97;8.37;;;13.90;15.10;;;;;;4939676;29;20439;-82
2024/03/27 01:01:40;;;;;;;9.53;8.73;;;13.90;15.10;;;;;;4924271;29;20192;-82
2024/03/27 01:04:05;;;;;;;10.30;9.60;;;14.00;15.10;;;;;;4923850;29;20186;-82
2024/03/27 01:06:31;;;;;;;11.27;10.47;;;14.00;15.00;;;;;;4938570;29;20252;-80
2024/03/27 01:08:56;;;;;;;9.93;9.20;;;13.90;14.90;;;;;;4911833;29;20193;-81
2024/03/27 01:11:22;;;;;;;10.07;9.47;;;13.90;14.60;;;;;;4904770;29;20236;-81
2024/03/27 01:13:47;;;;;;;10.50;9.70;;;13.90;14.50;;;;;;4904274;29;20185;-84
2024/03/27 01:16:13;;;;;;;10.40;9.60;;;13.90;14.50;;;;;;4904000;29;20223;-80
2024/03/27 01:18:40;;;;;;;11.13;10.33;;;13.90;14.60;;;;;;4905957;29;20188;-82
2024/03/27 01:21:05;;;;;;;10.33;9.50;;;14.00;14.90;;;;;;4937113;29;20263;-82
2024/03/27 01:23:31;;;;;;;10.17;9.47;;;13.90;14.90;;;;;;4926556;29;20959;-82
2024/03/27 01:25:56;;;;;;;10.47;9.87;;;14.00;15.00;;;;;;4926777;29;20467;-82
2024/03/27 01:28:22;;;;;;;11.53;10.73;;;13.90;15.10;;;;;;4923725;29;20645;-83
2024/03/27 01:30:47;;;;;;;11.60;10.80;;;13.70;15.80;;;;;;4908022;29;20638;-82
2024/03/27 01:33:13;;;;;;;10.10;9.60;;;13.60;16.00;;;;;;4908364;29;20274;-83
2024/03/27 01:35:44;;;;;;;10.23;9.53;;;13.40;16.30;;;;;;4925922;29;20219;-82
2024/03/27 01:38:09;;;;;;;9.70;9.03;;;13.20;16.90;;;;;;4926887;29;20212;-82
2024/03/27 01:40:35;;;;;;;9.37;8.77;;;13.10;17.00;;;;;;4926436;29;20447;-82
2024/03/27 01:43:01;;;;;;;11.10;10.10;;;13.00;17.00;;;;;;4923879;29;20192;-83
2024/03/27 01:45:26;;;;;;;10.07;9.37;;;13.10;17.00;;;;;;4910150;29;20690;-82
2024/03/27 01:47:52;;;;;;;10.77;9.90;;;13.10;17.00;;;;;;4908379;29;20522;-82
2024/03/27 01:50:22;;;;;;;10.13;9.33;;;13.20;17.10;;;;;;4922979;29;20272;-83
2024/03/27 01:52:48;;;;;;;9.40;8.80;;;13.20;17.10;;;;;;4906993;29;20279;-82
2024/03/27 01:55:14;;;;;;;10.30;9.37;;;13.30;16.50;;;;;;4925295;29;20476;-83
2024/03/27 01:57:40;;;;;;;9.00;8.40;;;13.40;16.30;;;;;;4908821;29;20520;-83
2024/03/27 02:00:08;;;;;;;9.23;8.63;;;13.50;16.20;;;;;;4953306;29;20246;-82
2024/03/27 02:02:37;;;;;;;9.57;8.87;;;13.50;15.90;;;;;;4925729;29;20199;-82
2024/03/27 02:05:03;;;;;;;9.20;8.60;;;13.50;15.40;;;;;;4942410;29;20464;-81
2024/03/27 02:07:29;;;;;;;7.93;7.43;;;13.50;14.80;;;;;;4924700;29;20527;-82
2024/03/27 02:09:55;;;;;;;9.10;8.50;;;13.50;14.60;;;;;;4943538;29;20522;-82
2024/03/27 02:12:21;;;;;;;7.97;7.47;;;13.50;14.60;;;;;;4925379;29;20276;-82
2024/03/27 02:14:46;;;;;;;8.47;7.77;;;13.50;14.70;;;;;;4925056;29;20471;-82
2024/03/27 02:17:12;;;;;;;8.20;7.57;;;13.40;15.30;;;;;;4925414;29;20600;-82
2024/03/27 02:19:37;;;;;;;8.40;8.00;;;13.40;15.10;;;;;;4911700;29;20688;-82
2024/03/27 02:22:03;;;;;;;8.57;8.07;;;13.40;15.30;;;;;;4911912;29;20193;-82
2024/03/27 02:24:36;;;;;;;9.20;8.70;;;13.40;15.20;;;;;;4926878;29;20280;-82
2024/03/27 02:27:01;;;;;;;8.73;8.13;;;13.30;15.30;;;;;;4939984;29;20503;-82
2024/03/27 02:29:27;;;;;;;8.03;7.50;;;13.30;15.40;;;;;;4928913;29;20933;-82
2024/03/27 02:31:52;;;;;;;9.87;8.87;;;13.30;15.60;;;;;;4941552;29;20601;-82
2024/03/27 02:34:18;;;;;;;8.60;7.97;;;13.00;16.00;;;;;;4910006;29;20181;-82
2024/03/27 02:36:43;;;;;;;8.30;7.80;;;12.90;16.10;;;;;;4924377;29;20204;-82
2024/03/27 02:39:09;;;;;;;8.17;7.67;;;12.90;16.30;;;;;;4908394;29;20196;-82
2024/03/27 02:41:34;;;;;;;8.00;7.50;;;12.90;16.50;;;;;;4907332;29;20199;-82
2024/03/27 02:44:00;;;;;;;8.60;8.10;;;12.90;16.30;;;;;;4925332;29;20244;-82
2024/03/27 02:46:25;;;;;;;9.40;8.80;;;12.90;16.30;;;;;;4920624;29;20212;-82
2024/03/27 02:48:51;;;;;;;8.90;8.40;;;12.90;16.00;;;;;;4928103;29;20558;-82
2024/03/27 02:51:17;;;;;;;8.90;8.40;;;13.00;15.90;;;;;;4943408;29;20180;-82
2024/03/27 02:53:42;;;;;;;7.97;7.43;;;13.10;15.90;;;;;;4923614;29;20207;-82
2024/03/27 02:56:08;;;;;;;8.73;8.10;;;13.10;15.70;;;;;;4907625;29;20209;-81
2024/03/27 02:58:33;;;;;;;8.70;8.10;;;13.20;15.80;;;;;;4918733;29;20192;-82
2024/03/27 03:00:59;;;;;;;9.40;8.80;;;13.10;15.70;;;;;;4929950;29;20208;-82
2024/03/27 03:03:28;;;;;;;9.03;8.23;;;13.10;15.70;;;;;;4931006;29;20189;-82
2024/03/27 03:05:54;;;;;;;9.63;8.93;;;13.10;15.80;;;;;;4930248;29;20216;-82
2024/03/27 03:08:19;;;;;;;9.90;9.10;;;13.20;15.80;;;;;;4924128;29;20474;-83
2024/03/27 03:10:45;;;;;;;8.90;8.30;;;13.20;15.70;;;;;;4915512;29;20193;-82
2024/03/27 03:13:10;;;;;;;9.90;9.23;;;13.20;15.90;;;;;;4936932;29;20199;-82
2024/03/27 03:15:36;;;;;;;8.80;8.20;;;13.20;15.90;;;;;;4940702;29;20231;-83
2024/03/27 03:18:01;;;;;;;8.63;8.10;;;13.10;16.00;;;;;;4913565;29;20225;-83
2024/03/27 03:20:27;;;;;;;8.13;7.60;;;12.90;17.40;;;;;;4923087;29;20212;-83
2024/03/27 03:22:53;;;;;;;9.23;8.63;;;12.70;16.80;;;;;;4906856;29;20193;-83
2024/03/27 03:25:19;;;;;;;9.20;8.60;;;12.40;17.40;;;;;;4910501;29;20208;-83
2024/03/27 03:27:44;;;;;;;8.90;8.30;;;12.50;17.20;;;;;;4918076;29;20856;-83
2024/03/27 03:30:10;;;;;;;9.80;9.20;;;12.60;16.90;;;;;;4939547;29;20545;-82
2024/03/27 03:32:36;;;;;;;8.60;8.10;;;12.60;16.60;;;;;;4910295;29;20197;-82
2024/03/27 03:35:02;;;;;;;9.87;9.13;;;12.70;16.70;;;;;;4924957;29;20491;-82
2024/03/27 03:37:28;;;;;;;9.30;8.70;;;12.70;16.80;;;;;;4929817;29;20488;-82
2024/03/27 03:39:53;;;;;;;10.10;9.30;;;12.60;16.80;;;;;;4940830;29;20451;-81
2024/03/27 03:42:19;;;;;;;10.87;9.90;;;12.70;16.80;;;;;;4940846;29;20553;-82
2024/03/27 03:44:45;;;;;;;9.60;8.90;;;12.80;16.80;;;;;;4913860;29;20673;-81
2024/03/27 03:47:10;;;;;;;9.03;8.27;;;12.90;16.90;;;;;;4904348;29;20551;-81
2024/03/27 03:49:36;;;;;;;9.53;8.93;;;12.80;16.80;;;;;;4904309;29;20500;-82
2024/03/27 03:52:02;;;;;;;8.90;8.40;;;12.80;16.80;;;;;;4908986;29;20238;-82
2024/03/27 03:54:28;;;;;;;9.60;9.10;;;12.50;17.70;;;;;;4920061;29;20184;-81
2024/03/27 03:56:54;;;;;;;9.80;9.20;;;12.20;18.40;;;;;;4940732;29;20475;-81
2024/03/27 03:59:19;;;;;;;9.57;8.83;;;12.00;19.00;;;;;;4923317;29;20207;-82
2024/03/27 04:01:45;;;;;;;10.10;9.50;;;11.70;19.50;;;;;;4923556;29;20442;-81
2024/03/27 04:04:11;;;;;;;9.27;8.63;;;11.60;20.00;;;;;;4923721;29;20569;-82
2024/03/27 04:06:36;;;;;;;9.23;8.40;;;11.30;20.70;;;;;;4938679;29;20245;-81
2024/03/27 04:09:02;;;;;;;9.60;9.00;;;11.20;20.90;;;;;;4923779;29;20467;-81
2024/03/27 04:11:28;;;;;;;9.57;8.93;;;11.20;20.70;;;;;;4933091;29;20669;-81
2024/03/27 04:13:53;;;;;;;9.43;8.83;;;11.20;20.80;;;;;;4931811;29;20192;-81
2024/03/27 04:16:19;;;;;;;9.03;8.53;;;11.30;21.00;;;;;;4940384;29;20570;-82
2024/03/27 04:18:45;;;;;;;9.40;8.70;;;11.60;20.20;;;;;;4922939;29;20195;-82
2024/03/27 04:21:11;;;;;;;10.10;9.30;;;11.80;19.60;;;;;;4923764;29;20180;-81
2024/03/27 04:23:37;;;;;;;9.30;8.70;;;12.00;18.90;;;;;;4922372;29;20512;-82
2024/03/27 04:26:02;;;;;;;9.80;9.10;;;12.30;18.40;;;;;;4924619;29;20239;-82
2024/03/27 04:28:28;;;;;;;10.33;9.57;;;12.40;18.10;;;;;;4925755;29;20559;-82
2024/03/27 04:30:53;;;;;;;10.90;10.20;;;12.30;18.50;;;;;;4922059;29;20350;-83
2024/03/27 04:33:20;;;;;;;9.30;8.63;;;12.30;18.30;;;;;;4918908;29;20180;-81
2024/03/27 04:35:46;;;;;;;9.80;9.20;;;12.20;18.50;;;;;;4923294;29;20211;-81
2024/03/27 04:38:11;;;;;;;9.93;9.33;;;12.00;18.80;;;;;;4923593;29;20464;-81
2024/03/27 04:40:37;;;;;;;10.87;9.50;;;11.90;19.40;;;;;;4914770;29;20481;-81
2024/03/27 04:43:03;;;;;;;9.97;9.27;;;11.90;19.60;;;;;;4922001;29;20241;-80
2024/03/27 04:45:29;;;;;;;9.47;8.97;;;12.00;19.40;;;;;;4921341;29;20213;-80
2024/03/27 04:47:55;;;;;;;10.40;9.60;;;12.10;18.90;;;;;;4903892;29;20781;-80
2024/03/27 04:50:20;;;;;;;10.47;9.60;;;12.20;18.60;;;;;;4920239;29;20489;-81
2024/03/27 04:52:46;;;;;;;10.20;9.40;;;12.40;18.30;;;;;;4910169;29;20196;-80
2024/03/27 04:55:12;;;;;;;10.43;9.57;;;12.30;18.00;;;;;;4924117;29;20212;-81
2024/03/27 04:57:38;;;;;;;9.87;9.17;;;12.00;19.00;;;;;;4907112;29;20213;-81
2024/03/27 05:00:06;;;;;;;10.20;9.60;;;11.90;19.70;;;;;;4916396;29;20428;-81
2024/03/27 05:02:31;;;;;;;11.37;10.23;;;11.80;19.90;;;;;;4917549;29;20384;-80
2024/03/27 05:04:57;;;;;;;10.87;10.07;;;11.70;20.50;;;;;;4940832;29;20471;-81
2024/03/27 05:07:23;;;;;;;10.33;9.73;;;11.80;20.50;;;;;;4925075;29;20208;-81
2024/03/27 05:09:48;;;;;;;10.87;10.03;;;12.00;20.20;;;;;;4926218;29;20223;-81
2024/03/27 05:12:15;;;;;;;10.80;10.13;;;12.20;19.20;;;;;;4929567;29;20188;-81
2024/03/27 05:14:41;;;;;;;10.10;9.40;;;12.00;19.00;;;;;;4916568;29;20196;-80
2024/03/27 05:17:11;;;;;;;10.67;9.73;;;12.10;19.20;;;;;;4958523;23;20497;-80
2024/03/27 05:19:42;;;;;;;10.87;9.87;;;12.20;19.00;;;;;;4925402;29;20439;-79
2024/03/27 05:26:05;;;;;;;10.20;9.57;;;12.40;18.40;;;;;;4892185;29;20576;-81
2024/03/27 05:36:01;;;;;;;10.83;10.03;;;12.70;17.40;;;;;;4816874;29;20444;-81
2024/03/27 05:38:55;;;;;;;10.73;10.00;;;12.70;17.20;;;;;;4821560;29;20871;-83
2024/03/27 05:41:59;;;;;;;11.03;10.17;;;12.80;17.30;;;;;;4833171;29;20467;-81
2024/03/27 05:44:29;;;;;;;11.30;10.60;;;12.80;17.40;;;;;;4863697;29;20427;-81
2024/03/27 05:47:14;;;;;;;10.00;9.40;;;12.90;17.50;;;;;;4918507;29;20447;-82
2024/03/27 05:49:39;;;;;;;10.97;10.27;;;12.80;17.40;;;;;;4949902;29;20423;-80
2024/03/27 05:52:05;;;;;;;10.63;10.03;;;12.80;17.30;;;;;;4964171;29;20929;-80
2024/03/27 05:54:31;;;;;;;10.33;9.73;;;12.80;17.40;;;;;;4948211;29;20194;-80
2024/03/27 05:56:58;;;;;;;10.20;9.63;;;12.80;17.40;;;;;;4927139;29;20208;-80
2024/03/27 05:59:23;;;;;;;10.63;9.93;;;12.70;17.50;;;;;;4926804;29;20427;-80
2024/03/27 06:01:49;;;;;;;10.90;10.10;;;12.80;17.50;;;;;;4943178;29;20454;-80
2024/03/27 06:04:14;;;;;;;11.03;10.23;;;12.80;17.50;;;;;;4943821;29;20263;-80
2024/03/27 06:06:40;;;;;;;11.37;10.57;;;12.80;17.40;;;;;;4943114;29;20690;-81
2024/03/27 06:09:08;;;;;;;11.47;10.43;;;12.80;17.60;;;;;;4939364;29;20183;-81
2024/03/27 06:11:34;;;;;;;11.17;10.47;;;12.80;17.70;;;;;;4946571;29;20714;-80
2024/03/27 06:14:00;;;;;;;11.00;10.30;;;12.60;17.90;;;;;;4962607;29;20450;-80
2024/03/27 06:16:25;;;;;;;11.50;10.53;;;12.30;18.90;;;;;;4962680;29;20234;-80
2024/03/27 06:18:54;;;;;;;10.97;10.27;;;12.20;18.80;;;;;;4945390;29;20187;-80
2024/03/27 06:21:20;;;;;;;11.20;10.30;;;12.10;19.30;;;;;;4926752;29;20184;-79
2024/03/27 06:23:45;;;;;;;11.03;10.33;;;12.20;19.70;;;;;;4944261;29;20428;-80
2024/03/27 06:26:10;;;;;;;12.40;11.50;;;12.30;19.10;;;;;;4944435;29;20227;-80
2024/03/27 06:28:36;;;;;;;12.03;11.13;;;12.50;18.50;;;;;;4927423;29;20199;-80
2024/03/27 06:31:08;;;;;;;12.43;11.63;;;12.50;18.40;;;;;;4964555;29;20267;-80
2024/03/27 06:33:34;;;;;;;12.10;11.07;;;12.60;18.60;;;;;;4965592;29;20200;-82
2024/03/27 06:36:00;;;;;;;12.27;11.27;;;12.50;18.60;;;;;;4962068;29;20539;-80
2024/03/27 06:38:27;;;;;;;12.37;11.47;;;12.50;18.40;;;;;;4962875;29;20498;-82
2024/03/27 06:40:53;;;;;;;12.57;11.77;;;12.50;18.40;;;;;;4958400;29;20258;-81
2024/03/27 06:43:22;;;;;;;11.90;11.10;;;12.30;18.80;;;;;;4937097;29;20539;-81
2024/03/27 06:45:47;;;;;;;12.07;11.20;;;12.30;19.10;;;;;;4940168;29;20211;-82
2024/03/27 06:48:15;;;;;;;11.90;11.20;;;12.40;19.20;;;;;;4927338;29;20440;-80
2024/03/27 06:50:41;;;;;;;12.00;11.10;;;12.40;18.40;;;;;;4931132;29;20195;-80
2024/03/27 06:53:07;;;;;;;12.70;11.90;;;12.50;17.90;;;;;;4953964;29;20415;-80
2024/03/27 06:55:32;;;;;;;12.87;11.77;;;12.60;17.70;;;;;;4953061;29;20231;-80
2024/03/27 06:57:58;;;;;;;12.07;11.23;;;12.70;17.70;;;;;;4940357;29;20211;-79
2024/03/27 07:00:24;;;;;;;12.73;11.83;;;12.70;17.40;;;;;;4940035;29;20644;-79
2024/03/27 07:02:49;;;;;;;12.97;11.93;;;12.80;17.60;;;;;;4942882;29;20629;-81
2024/03/27 07:05:16;;;;;;;11.90;11.00;;;12.60;17.80;;;;;;4923643;29;20180;-80
2024/03/27 07:07:42;;;;;;;11.53;10.70;;;12.60;17.70;;;;;;4936445;29;20189;-80
2024/03/27 07:10:08;;;;;;;11.17;10.40;;;12.50;18.60;;;;;;4936033;29;20518;-81
2024/03/27 07:12:34;;;;;;;11.57;10.77;;;12.50;18.30;;;;;;4919395;29;20459;-82
2024/03/27 07:15:00;;;;;;;13.20;12.30;;;12.60;18.10;;;;;;4939222;29;20443;-82
2024/03/27 07:17:25;;;;;;;12.13;11.30;;;12.70;17.60;;;;;;4925208;29;20476;-82
2024/03/27 07:19:51;;;;;;;12.03;11.07;;;12.70;17.50;;;;;;4940374;29;20219;-82
2024/03/27 07:22:17;;;;;;;12.97;11.87;;;12.70;17.20;;;;;;4941447;29;20524;-83
2024/03/27 07:24:43;;;;;;;11.30;10.50;;;12.70;17.40;;;;;;4941712;29;20581;-82
2024/03/27 07:27:08;;;;;;;11.50;10.50;;;12.70;17.40;;;;;;4923831;29;20523;-82
2024/03/27 07:29:35;;;;;;;12.33;11.53;;;12.70;17.30;;;;;;4924234;29;20184;-80
2024/03/27 07:32:01;;;;;;;13.20;12.13;;;12.70;17.40;;;;;;4924281;29;20220;-80
2024/03/27 07:34:27;;;;;;;13.10;12.10;;;12.80;17.10;;;;;;4929018;29;20427;-81
2024/03/27 07:36:53;;;;;;;13.17;12.27;;;12.70;16.80;;;;;;4959171;29;20475;-82
2024/03/27 07:39:25;;;;;;;12.50;11.73;;;12.70;17.10;;;;;;4964769;28;20414;-82
2024/03/27 07:41:50;;;;;;;13.20;12.27;;;12.70;17.20;;;;;;4953189;29;20175;-82
2024/03/27 07:44:17;;;;;;;13.10;12.00;;;12.70;17.10;;;;;;4943271;29;20491;-82
2024/03/27 07:46:43;;;;;;;11.57;10.87;;;12.70;17.70;;;;;;4959597;29;20231;-81
2024/03/27 07:49:08;;;;;;;12.10;11.37;;;12.80;17.10;;;;;;4950760;29;20522;-81
2024/03/27 07:51:36;;;;;;;12.67;11.57;;;12.80;17.10;;;;;;4929474;29;20186;-81
2024/03/27 07:54:02;;;;;;;11.70;11.10;;;12.80;17.20;;;;;;4927734;29;20198;-82
2024/03/27 07:56:27;;;;;;;12.80;11.60;;;12.80;17.50;;;;;;4936151;29;20870;-82
2024/03/27 07:58:53;;;;;;;12.00;11.20;;;12.90;17.50;;;;;;4940682;29;20222;-82
2024/03/27 08:01:19;;;;;;;12.40;11.60;;;12.90;17.60;;;;;;4923574;29;20182;-82
2024/03/27 08:03:52;;;;;;;12.70;11.70;;;12.90;18.20;;;;;;4923104;29;20180;-82
2024/03/27 08:06:18;;;;;;;13.03;11.73;;;12.90;18.60;;;;;;4940211;29;20459;-82
2024/03/27 08:08:43;;;;;;;11.23;10.43;;;12.90;18.90;;;;;;4931511;29;20786;-82
2024/03/27 08:11:10;;;;;;;11.23;10.37;;;12.90;19.20;;;;;;4939332;29;20644;-82
2024/03/27 08:13:41;;;;;;;12.13;11.07;;;12.90;19.40;;;;;;4926995;29;20188;-81
2024/03/27 08:16:07;;;;;;;11.37;10.57;;;12.80;19.90;;;;;;4926019;29;20499;-83
2024/03/27 08:18:46;;;;;;;11.90;11.30;;;12.90;19.90;;;;;;4927201;29;20474;-82
2024/03/27 08:21:12;;;;;;;11.53;10.73;;;12.90;19.80;;;;;;4926565;29;20267;-82
2024/03/27 08:24:03;;;;;;;10.73;10.03;;;12.90;19.90;;;;;;4937268;29;20442;-82
2024/03/27 08:26:29;;;;;;;11.20;10.50;;;12.80;20.40;;;;;;4938665;28;20481;-82
2024/03/27 08:29:00;;;;;;;11.20;10.40;;;12.90;20.50;;;;;;4964845;29;20490;-82
2024/03/27 08:31:26;;;;;;;11.20;10.53;;;12.90;20.30;;;;;;4963231;29;20478;-82
2024/03/27 08:33:51;;;;;;;11.57;10.77;;;13.10;19.60;;;;;;4945842;29;20187;-82
2024/03/27 08:36:19;;;;;;;11.40;10.60;;;13.00;19.40;;;;;;4945759;29;20199;-82
2024/03/27 08:38:44;;;;;;;11.40;10.60;;;13.10;19.40;;;;;;4945653;29;20183;-82
2024/03/27 08:41:10;;;;;;;12.57;11.77;;;13.00;19.70;;;;;;4963158;29;20427;-82
2024/03/27 08:43:36;;;;;;;13.77;12.73;;;13.00;19.50;;;;;;4946739;29;20185;-82
2024/03/27 08:46:04;;;;;;;12.87;11.97;;;13.00;19.50;;;;;;4924270;29;20599;-83
2024/03/27 08:48:30;;;;;;;12.63;11.87;;;13.00;18.80;;;;;;4944369;29;20187;-82
2024/03/27 08:50:55;;;;;;;12.80;11.97;;;13.10;18.00;;;;;;4935952;29;20943;-82
2024/03/27 08:53:21;;;;;;;12.40;11.60;;;13.20;18.40;;;;;;4941063;29;20275;-81
2024/03/27 08:55:47;;;;;;;14.57;13.47;;;13.20;18.80;;;;;;4923055;29;20752;-81
2024/03/27 08:58:14;;;;;;;12.70;11.83;;;13.20;18.20;;;;;;4950604;29;20467;-81
2024/03/27 09:00:41;;;;;;;14.77;13.70;;;13.30;18.10;;;;;;4933012;29;20180;-81
2024/03/27 09:03:07;;;;;;;12.37;11.47;;;13.40;17.40;;;;;;4934391;29;20455;-81
2024/03/27 09:05:35;;;;;;;13.17;12.23;;;13.50;17.60;;;;;;4943281;29;20499;-81
2024/03/27 09:08:01;;;;;;;13.37;12.30;;;13.50;17.30;;;;;;4926981;29;20208;-82
2024/03/27 09:10:27;;;;;;;13.30;12.30;;;13.50;17.30;;;;;;4926491;29;20427;-82
2024/03/27 09:12:55;;;;;;;12.10;11.40;;;13.70;17.40;;;;;;4950598;29;20580;-83
2024/03/27 09:15:26;;;;;;;14.30;13.30;;;13.80;17.50;;;;;;4944022;29;20212;-82
2024/03/27 09:17:52;;;;;;;14.37;13.30;;;14.00;16.80;;;;;;4951844;29;20471;-82
2024/03/27 09:20:18;;;;;;;12.90;12.10;;;14.20;16.30;;;;;;4941262;29;20443;-82
2024/03/27 09:22:43;;;;;;;12.60;11.77;;;14.40;16.30;;;;;;4923857;29;20183;-82
2024/03/27 09:25:09;;;;;;;12.30;11.40;;;14.40;16.20;;;;;;4953058;29;20328;-82
2024/03/27 09:27:34;;;;;;;13.40;12.60;;;14.40;16.70;;;;;;4952964;29;20180;-82
2024/03/27 09:30:00;;;;;;;11.87;11.13;;;14.50;16.50;;;;;;4959124;29;20195;-82
2024/03/27 09:32:26;;;;;;;13.60;12.70;;;14.60;16.20;;;;;;4956664;29;20176;-82
2024/03/27 09:34:53;;;;;;;13.23;12.07;;;14.70;15.40;;;;;;4942943;29;20247;-81
2024/03/27 09:37:18;;;;;;;12.40;11.50;;;14.80;15.00;;;;;;4940439;29;20215;-81
2024/03/27 09:39:47;;;;;;;12.43;11.33;;;14.90;15.00;;;;;;4932339;29;20419;-81
2024/03/27 09:42:13;;;;;;;13.90;12.47;;;14.90;14.90;;;;;;4927362;29;20199;-81
2024/03/27 09:44:39;;;;;;;12.37;11.67;;;14.80;14.70;;;;;;4925062;29;20420;-80
2024/03/27 09:47:14;;;;;;;13.33;12.40;;;14.70;14.90;;;;;;4942985;29;20470;-81
2024/03/27 09:49:40;;;;;;;13.23;12.43;;;14.60;15.00;;;;;;4930771;29;20193;-82
2024/03/27 09:52:09;;;;;;;12.97;12.10;;;14.60;15.20;;;;;;4938006;29;20923;-83
2024/03/27 09:54:40;;;;;;;13.50;12.60;;;14.50;15.60;;;;;;4918290;29;20187;-83
2024/03/27 09:57:18;;;;;;;11.77;10.90;;;14.60;16.20;;;;;;4926673;29;20510;-82
2024/03/27 09:59:44;;;;;;;11.47;10.67;;;14.60;16.00;;;;;;4933147;29;20453;-82
2024/03/27 10:02:12;;;;;;;12.37;11.47;;;14.60;16.50;;;;;;4948468;29;20490;-82
2024/03/27 10:04:38;;;;;;;11.17;10.47;;;14.70;16.60;;;;;;4938860;29;20639;-82
2024/03/27 10:07:06;;;;;;;12.30;11.30;;;14.80;16.50;;;;;;4931760;29;20462;-82
2024/03/27 10:09:32;;;;;;;12.87;11.73;;;14.80;16.60;;;;;;4924140;29;20616;-82
2024/03/27 10:11:58;;;;;;;12.97;11.90;;;14.90;16.50;;;;;;4926877;29;20515;-82
2024/03/27 10:14:23;;;;;;;11.53;10.63;;;14.90;16.60;;;;;;4943946;29;20199;-82
2024/03/27 10:16:49;;;;;;;12.30;11.20;;;15.00;16.60;;;;;;4930700;29;20963;-81
2024/03/27 10:19:17;;;;;;;12.50;11.70;;;15.00;16.80;;;;;;4940886;29;20184;-81
2024/03/27 10:21:42;;;;;;;11.90;11.17;;;15.00;16.80;;;;;;4940075;29;20184;-82
2024/03/27 10:24:08;;;;;;;12.23;11.33;;;15.00;16.80;;;;;;4921337;29;20905;-82
2024/03/27 10:26:34;;;;;;;12.67;11.60;;;15.10;16.60;;;;;;4920662;29;20207;-83
2024/03/27 10:29:09;;;;;;;12.20;11.43;;;15.10;16.50;;;;;;4927390;29;20184;-85
2024/03/27 10:31:35;;;;;;;12.20;11.27;;;15.00;17.10;;;;;;4938994;29;20483;-83
2024/03/27 10:34:00;;;;;;;12.87;12.17;;;15.00;17.60;;;;;;4924750;29;20428;-83
2024/03/27 10:36:26;;;;;;;12.67;12.07;;;14.90;18.20;;;;;;4932166;29;20199;-82
2024/03/27 10:38:56;;;;;;;12.20;11.50;;;14.70;18.10;;;;;;4934752;29;20181;-78
2024/03/27 10:41:24;;;;;;;12.40;11.70;;;14.60;18.50;;;;;;4916751;29;20757;-80
2024/03/27 10:43:55;;;;;;;13.70;13.00;;;14.50;18.50;;;;;;4921229;29;20823;-80
2024/03/27 10:46:24;;;;;;;14.13;13.10;;;14.50;19.00;;;;;;4932112;29;20554;-81
2024/03/27 10:49:28;;;;;;;13.63;12.73;;;14.40;19.20;;;;;;4923585;29;20433;-83
2024/03/27 10:52:02;;;;;;;13.20;12.30;;;14.40;19.40;;;;;;4920152;29;20571;-83
2024/03/27 10:54:55;;;;;;;13.80;13.00;;;14.40;19.60;;;;;;4945947;29;20396;-82
2024/03/27 10:57:25;;;;;;;13.33;12.63;;;14.40;19.60;;;;;;4938836;29;20505;-81
2024/03/27 10:59:52;;;;;;;13.10;12.40;;;14.40;19.60;;;;;;4952115;29;20428;-80
2024/03/27 11:02:19;;;;;;;12.73;11.83;;;14.50;19.60;;;;;;4933071;29;20191;-80
2024/03/27 11:05:01;;;;;;;12.90;12.20;;;14.60;19.10;;;;;;4930822;29;20423;-82
2024/03/27 11:16:00;;;;;;;13.70;12.90;;;14.20;20.60;;;;;;4943849;23;20562;-81
2024/03/27 11:18:32;;;;;;;13.73;12.77;;;14.20;21.20;;;;;;4936299;29;21038;-82
2024/03/27 11:21:11;;;;;;;12.97;12.10;;;14.10;21.50;;;;;;4926685;29;20180;-82
2024/03/27 11:23:42;;;;;;;13.07;12.37;;;14.00;22.00;;;;;;4886596;29;20419;-83
2024/03/27 11:26:37;;;;;;;14.10;13.30;;;13.90;22.20;;;;;;4936265;29;20474;-82
2024/03/27 11:29:05;;;;;;;13.77;12.97;;;13.90;22.60;;;;;;4920369;29;20828;-82
2024/03/27 11:32:09;;;;;;;14.10;13.30;;;13.80;22.80;;;;;;4932707;29;20790;-82
2024/03/27 11:34:47;;;;;;;13.03;12.33;;;13.70;23.10;;;;;;4917195;29;20434;-81
2024/03/27 11:41:57;;;;;;;12.87;12.17;;;13.60;23.30;;;;;;4909600;29;20428;-85
2024/03/27 11:48:27;;;;;;;12.83;12.13;;;13.50;23.50;;;;;;4820745;29;20460;-85
2024/03/27 12:41:42;;;;;;;6.80;6.50;;;13.20;20.10;;;;;;4805400;29;20427;-85
2024/03/27 12:44:08;;;;;;;7.10;6.80;;;13.10;19.60;;;;;;4827643;29;20476;-83
2024/03/27 12:46:54;;;;;;;6.90;6.60;;;13.10;19.80;;;;;;4848078;29;20472;-86
2024/03/27 12:49:20;;;;;;;7.63;7.30;;;13.10;19.70;;;;;;4895770;29;20459;-81
2024/03/27 12:51:46;;;;;;;7.47;7.07;;;13.10;19.50;;;;;;4918123;29;20425;-81
2024/03/27 12:54:12;;;;;;;7.40;7.20;;;13.20;19.00;;;;;;4916930;29;20530;-80
2024/03/27 12:56:38;;;;;;;8.10;7.80;;;13.10;19.10;;;;;;4918048;29;20283;-82
2024/03/27 12:59:04;;;;;;;7.47;7.27;;;13.10;19.20;;;;;;4934514;29;20431;-83
2024/03/27 13:01:37;;;;;;;6.90;6.70;;;13.20;19.30;;;;;;4938200;29;20185;-83
2024/03/27 13:04:05;;;;;;;6.70;6.50;;;13.30;19.20;;;;;;4919996;29;20190;-83
2024/03/27 13:06:30;;;;;;;6.50;6.30;;;13.20;18.40;;;;;;4908982;29;20452;-81
2024/03/27 13:08:58;;;;;;;6.40;6.10;;;13.20;19.70;;;;;;4902758;29;20982;-82
2024/03/27 13:11:38;;;;;;;7.47;7.10;;;13.20;19.00;;;;;;4916620;29;20216;-83
2024/03/27 13:14:09;;;;;;;6.93;6.67;;;13.20;18.90;;;;;;4912025;29;20435;-82
2024/03/27 13:16:35;;;;;;;7.47;7.17;;;13.20;19.40;;;;;;4914141;29;20444;-83
2024/03/27 13:19:06;;;;;;;6.90;6.70;;;12.90;19.40;;;;;;4910639;29;20481;-83
2024/03/27 13:21:45;;;;;;;7.03;6.73;;;12.60;19.90;;;;;;4909602;29;20241;-82
2024/03/27 13:24:48;;;;;;;6.40;6.20;;;12.40;20.60;;;;;;4922554;29;20958;-82
2024/03/27 13:27:13;;;;;;;6.50;6.30;;;12.30;21.00;;;;;;4909277;29;21059;-82
2024/03/27 13:29:49;;;;;;;7.33;7.03;;;12.30;21.10;;;;;;4922946;29;20439;-82
2024/03/27 13:32:25;;;;;;;7.57;7.27;;;12.40;21.20;;;;;;4924468;29;20239;-82
2024/03/27 13:34:53;;;;;;;6.80;6.60;;;12.40;20.90;;;;;;4926307;29;20427;-82
2024/03/27 13:37:22;;;;;;;6.80;6.60;;;12.60;20.70;;;;;;4921576;29;20464;-82
2024/03/27 13:39:50;;;;;;;6.23;6.03;;;12.70;19.90;;;;;;4904922;29;20423;-81
2024/03/27 13:42:31;;;;;;;6.60;6.40;;;12.80;20.00;;;;;;4904648;29;20843;-82
2024/03/27 13:44:59;;;;;;;6.13;5.87;;;12.90;19.70;;;;;;4904368;29;20421;-83
2024/03/27 13:47:27;;;;;;;6.30;6.10;;;12.90;19.20;;;;;;4926333;29;20470;-82
2024/03/27 13:49:53;;;;;;;6.00;5.80;;;12.70;20.40;;;;;;4928160;29;20430;-82
2024/03/27 13:52:18;;;;;;;5.77;5.57;;;12.80;19.50;;;;;;4926754;29;20947;-81
2024/03/27 13:54:44;;;;;;;6.13;5.93;;;12.90;19.50;;;;;;4923985;29;20657;-81
2024/03/27 13:57:10;;;;;;;5.40;5.20;;;13.00;18.80;;;;;;4922535;29;20208;-80